sensor_id;sensor_type;location;lat;lon;timestamp;temperature;humidity
2030;DHT22;1020;48.854;8.830;2023-02-22T00:01:15;6.40;1.00
2030;DHT22;1020;48.854;8.830;2023-02-22T00:03:53;6.30;32.10
2030;DHT22;1020;48.854;8.830;2023-02-22T00:06:21;6.20;72.20
2030;DHT22;1020;48.854;8.830;2023-02-22T00:08:50;6.00;99.90
2030;DHT22;1020;48.854;8.830;2023-02-22T00:11:19;6.00;99.90
2030;DHT22;1020;48.854;8.830;2023-02-22T00:13:46;6.00;1.00
2030;DHT22;1020;48.854;8.830;2023-02-22T00:16:17;5.90;1.00
2030;DHT22;1020;48.854;8.830;2023-02-22T00:18:43;5.90;1.00
2030;DHT22;1020;48.854;8.830;2023-02-22T00:21:11;5.80;99.90
2030;DHT22;1020;48.854;8.830;2023-02-22T00:23:40;5.80;99.90
2030;DHT22;1020;48.854;8.830;2023-02-22T00:26:11;5.70;1.00
2030;DHT22;1020;48.854;8.830;2023-02-22T00:28:39;5.60;1.00
2030;DHT22;1020;48.854;8.830;2023-02-22T00:31:07;5.60;8.20
2030;DHT22;1020;48.854;8.830;2023-02-22T00:33:34;5.60;26.70
2030;DHT22;1020;48.854;8.830;2023-02-22T00:36:01;5.50;99.90
2030;DHT22;1020;48.854;8.830;2023-02-22T00:38:28;5.50;99.90
2030;DHT22;1020;48.854;8.830;2023-02-22T00:40:54;5.50;99.90
2030;DHT22;1020;48.854;8.830;2023-02-22T00:43:21;5.40;99.90
2030;DHT22;1020;48.854;8.830;2023-02-22T00:45:50;5.40;99.90
2030;DHT22;1020;48.854;8.830;2023-02-22T00:48:18;5.40;99.90
2030;DHT22;1020;48.854;8.830;2023-02-22T00:50:46;5.30;99.90
2030;DHT22;1020;48.854;8.830;2023-02-22T00:53:14;5.30;99.90
2030;DHT22;1020;48.854;8.830;2023-02-22T00:55:41;5.40;1.00
2030;DHT22;1020;48.854;8.830;2023-02-22T00:58:08;5.40;1.00
2030;DHT22;1020;48.854;8.830;2023-02-22T01:00:37;5.30;1.00
2030;DHT22;1020;48.854;8.830;2023-02-22T01:03:07;5.30;23.80
2030;DHT22;1020;48.854;8.830;2023-02-22T01:05:34;5.30;22.50
2030;DHT22;1020;48.854;8.830;2023-02-22T01:08:01;5.20;1.00
2030;DHT22;1020;48.854;8.830;2023-02-22T01:10:30;5.10;30.30
2030;DHT22;1020;48.854;8.830;2023-02-22T01:12:58;5.10;99.90
2030;DHT22;1020;48.854;8.830;2023-02-22T01:15:27;5.10;99.90
2030;DHT22;1020;48.854;8.830;2023-02-22T01:17:56;5.10;99.90
2030;DHT22;1020;48.854;8.830;2023-02-22T01:20:26;5.10;99.90
2030;DHT22;1020;48.854;8.830;2023-02-22T01:22:54;5.10;99.90
2030;DHT22;1020;48.854;8.830;2023-02-22T01:25:24;5.20;99.90
2030;DHT22;1020;48.854;8.830;2023-02-22T01:27:52;5.20;99.90
2030;DHT22;1020;48.854;8.830;2023-02-22T01:30:20;5.30;99.90
2030;DHT22;1020;48.854;8.830;2023-02-22T01:32:47;5.30;99.90
2030;DHT22;1020;48.854;8.830;2023-02-22T01:35:17;5.30;26.40
2030;DHT22;1020;48.854;8.830;2023-02-22T01:37:45;5.40;34.70
2030;DHT22;1020;48.854;8.830;2023-02-22T01:40:16;5.40;1.00
2030;DHT22;1020;48.854;8.830;2023-02-22T01:42:46;5.40;1.00
2030;DHT22;1020;48.854;8.830;2023-02-22T01:45:39;5.40;1.00
2030;DHT22;1020;48.854;8.830;2023-02-22T01:48:11;5.50;1.00
2030;DHT22;1020;48.854;8.830;2023-02-22T01:50:42;5.50;1.00
2030;DHT22;1020;48.854;8.830;2023-02-22T01:53:14;5.40;1.00
2030;DHT22;1020;48.854;8.830;2023-02-22T01:55:42;5.40;1.00
2030;DHT22;1020;48.854;8.830;2023-02-22T01:58:10;5.50;1.00
2030;DHT22;1020;48.854;8.830;2023-02-22T02:00:38;5.50;1.00
2030;DHT22;1020;48.854;8.830;2023-02-22T02:03:10;5.50;1.00
2030;DHT22;1020;48.854;8.830;2023-02-22T02:05:37;5.50;1.00
2030;DHT22;1020;48.854;8.830;2023-02-22T02:08:09;5.50;99.90
2030;DHT22;1020;48.854;8.830;2023-02-22T02:10:40;5.60;1.00
2030;DHT22;1020;48.854;8.830;2023-02-22T02:13:07;5.60;1.00
2030;DHT22;1020;48.854;8.830;2023-02-22T02:15:34;5.50;99.90
2030;DHT22;1020;48.854;8.830;2023-02-22T02:18:03;5.50;1.00
2030;DHT22;1020;48.854;8.830;2023-02-22T02:20:37;5.50;99.90
2030;DHT22;1020;48.854;8.830;2023-02-22T02:23:15;5.50;1.00
2030;DHT22;1020;48.854;8.830;2023-02-22T02:26:06;5.50;99.90
2030;DHT22;1020;48.854;8.830;2023-02-22T02:28:56;5.50;99.90
2030;DHT22;1020;48.854;8.830;2023-02-22T02:31:54;5.50;1.00
2030;DHT22;1020;48.854;8.830;2023-02-22T02:34:27;5.50;99.90
2030;DHT22;1020;48.854;8.830;2023-02-22T02:37:01;5.40;99.90
2030;DHT22;1020;48.854;8.830;2023-02-22T02:39:34;5.50;99.90
2030;DHT22;1020;48.854;8.830;2023-02-22T02:42:06;5.70;99.90
2030;DHT22;1020;48.854;8.830;2023-02-22T02:44:38;5.80;99.90
2030;DHT22;1020;48.854;8.830;2023-02-22T02:47:11;5.90;96.90
2030;DHT22;1020;48.854;8.830;2023-02-22T02:49:43;6.00;1.00
2030;DHT22;1020;48.854;8.830;2023-02-22T02:52:11;6.10;99.90
2030;DHT22;1020;48.854;8.830;2023-02-22T02:54:39;6.10;99.90
2030;DHT22;1020;48.854;8.830;2023-02-22T02:57:06;6.10;99.90
2030;DHT22;1020;48.854;8.830;2023-02-22T02:59:35;6.10;99.90
2030;DHT22;1020;48.854;8.830;2023-02-22T03:02:14;6.20;99.90
2030;DHT22;1020;48.854;8.830;2023-02-22T03:04:57;6.30;99.90
2030;DHT22;1020;48.854;8.830;2023-02-22T03:07:42;6.40;1.00
2030;DHT22;1020;48.854;8.830;2023-02-22T03:10:20;6.50;1.00
2030;DHT22;1020;48.854;8.830;2023-02-22T03:12:56;6.60;1.00
2030;DHT22;1020;48.854;8.830;2023-02-22T03:15:33;6.60;99.90
2030;DHT22;1020;48.854;8.830;2023-02-22T03:18:08;6.70;99.90
2030;DHT22;1020;48.854;8.830;2023-02-22T03:20:42;6.70;99.90
2030;DHT22;1020;48.854;8.830;2023-02-22T03:23:14;6.70;99.90
2030;DHT22;1020;48.854;8.830;2023-02-22T03:25:48;6.70;58.70
2030;DHT22;1020;48.854;8.830;2023-02-22T03:28:18;6.70;67.00
2030;DHT22;1020;48.854;8.830;2023-02-22T03:30:48;6.80;17.50
2030;DHT22;1020;48.854;8.830;2023-02-22T03:33:22;6.80;1.00
2030;DHT22;1020;48.854;8.830;2023-02-22T03:35:56;6.80;1.00
2030;DHT22;1020;48.854;8.830;2023-02-22T03:38:26;6.80;1.00
2030;DHT22;1020;48.854;8.830;2023-02-22T03:40:59;6.70;1.00
2030;DHT22;1020;48.854;8.830;2023-02-22T03:43:32;6.60;1.00
2030;DHT22;1020;48.854;8.830;2023-02-22T03:46:01;6.50;1.00
2030;DHT22;1020;48.854;8.830;2023-02-22T03:48:36;6.50;1.00
2030;DHT22;1020;48.854;8.830;2023-02-22T03:51:04;6.40;1.00
2030;DHT22;1020;48.854;8.830;2023-02-22T03:53:32;6.40;1.00
2030;DHT22;1020;48.854;8.830;2023-02-22T03:56:02;6.40;1.00
2030;DHT22;1020;48.854;8.830;2023-02-22T03:58:32;6.40;1.00
2030;DHT22;1020;48.854;8.830;2023-02-22T04:01:00;6.30;1.00
2030;DHT22;1020;48.854;8.830;2023-02-22T04:03:28;6.30;1.00
2030;DHT22;1020;48.854;8.830;2023-02-22T04:05:56;6.10;1.00
2030;DHT22;1020;48.854;8.830;2023-02-22T04:08:22;6.00;99.90
2030;DHT22;1020;48.854;8.830;2023-02-22T04:10:49;5.90;99.90
2030;DHT22;1020;48.854;8.830;2023-02-22T04:13:16;5.80;1.00
2030;DHT22;1020;48.854;8.830;2023-02-22T04:15:43;5.70;61.40
2030;DHT22;1020;48.854;8.830;2023-02-22T04:18:10;5.60;99.90
2030;DHT22;1020;48.854;8.830;2023-02-22T04:20:36;5.60;99.90
2030;DHT22;1020;48.854;8.830;2023-02-22T04:23:05;5.50;1.00
2030;DHT22;1020;48.854;8.830;2023-02-22T04:25:31;5.40;1.00
2030;DHT22;1020;48.854;8.830;2023-02-22T04:27:58;5.30;1.00
2030;DHT22;1020;48.854;8.830;2023-02-22T04:30:25;5.30;99.90
2030;DHT22;1020;48.854;8.830;2023-02-22T04:32:52;5.30;99.90
2030;DHT22;1020;48.854;8.830;2023-02-22T04:35:19;5.30;99.90
2030;DHT22;1020;48.854;8.830;2023-02-22T04:37:46;5.30;99.90
2030;DHT22;1020;48.854;8.830;2023-02-22T04:40:15;5.40;99.90
2030;DHT22;1020;48.854;8.830;2023-02-22T04:42:42;5.40;99.90
2030;DHT22;1020;48.854;8.830;2023-02-22T04:45:09;5.40;99.90
2030;DHT22;1020;48.854;8.830;2023-02-22T04:47:36;5.40;99.90
2030;DHT22;1020;48.854;8.830;2023-02-22T04:50:04;5.40;99.90
2030;DHT22;1020;48.854;8.830;2023-02-22T04:52:31;5.40;99.90
2030;DHT22;1020;48.854;8.830;2023-02-22T04:54:58;5.30;99.90
2030;DHT22;1020;48.854;8.830;2023-02-22T04:57:26;5.30;99.90
2030;DHT22;1020;48.854;8.830;2023-02-22T04:59:53;5.20;99.90
2030;DHT22;1020;48.854;8.830;2023-02-22T05:02:19;5.20;99.90
2030;DHT22;1020;48.854;8.830;2023-02-22T05:04:46;5.20;1.00
2030;DHT22;1020;48.854;8.830;2023-02-22T05:07:13;5.20;1.00
2030;DHT22;1020;48.854;8.830;2023-02-22T05:09:40;5.20;99.90
2030;DHT22;1020;48.854;8.830;2023-02-22T05:12:07;5.20;1.00
2030;DHT22;1020;48.854;8.830;2023-02-22T05:14:35;5.20;1.00
2030;DHT22;1020;48.854;8.830;2023-02-22T05:17:02;5.20;1.00
2030;DHT22;1020;48.854;8.830;2023-02-22T05:19:29;5.20;99.90
2030;DHT22;1020;48.854;8.830;2023-02-22T05:21:55;5.10;1.00
2030;DHT22;1020;48.854;8.830;2023-02-22T05:24:22;5.00;1.00
2030;DHT22;1020;48.854;8.830;2023-02-22T05:26:49;4.90;1.00
2030;DHT22;1020;48.854;8.830;2023-02-22T05:29:17;4.80;1.00
2030;DHT22;1020;48.854;8.830;2023-02-22T05:31:46;4.80;15.50
2030;DHT22;1020;48.854;8.830;2023-02-22T05:34:12;4.70;98.70
2030;DHT22;1020;48.854;8.830;2023-02-22T05:36:39;4.70;99.90
2030;DHT22;1020;48.854;8.830;2023-02-22T05:39:06;4.60;99.90
2030;DHT22;1020;48.854;8.830;2023-02-22T05:41:33;4.60;99.90
2030;DHT22;1020;48.854;8.830;2023-02-22T05:44:00;4.40;99.90
2030;DHT22;1020;48.854;8.830;2023-02-22T05:46:27;4.40;99.90
2030;DHT22;1020;48.854;8.830;2023-02-22T05:48:55;4.30;99.90
2030;DHT22;1020;48.854;8.830;2023-02-22T05:51:22;4.20;99.90
2030;DHT22;1020;48.854;8.830;2023-02-22T05:53:49;4.20;1.00
2030;DHT22;1020;48.854;8.830;2023-02-22T05:56:20;4.10;1.00
2030;DHT22;1020;48.854;8.830;2023-02-22T05:58:47;4.00;1.00
2030;DHT22;1020;48.854;8.830;2023-02-22T06:01:14;4.00;1.00
2030;DHT22;1020;48.854;8.830;2023-02-22T06:03:41;3.80;1.00
2030;DHT22;1020;48.854;8.830;2023-02-22T06:06:09;4.00;1.00
2030;DHT22;1020;48.854;8.830;2023-02-22T06:08:36;4.00;1.00
2030;DHT22;1020;48.854;8.830;2023-02-22T06:11:03;3.90;1.00
2030;DHT22;1020;48.854;8.830;2023-02-22T06:13:30;3.90;1.00
2030;DHT22;1020;48.854;8.830;2023-02-22T06:15:57;3.90;1.00
2030;DHT22;1020;48.854;8.830;2023-02-22T06:18:24;3.90;1.00
2030;DHT22;1020;48.854;8.830;2023-02-22T06:20:54;4.00;1.00
2030;DHT22;1020;48.854;8.830;2023-02-22T06:23:23;3.90;1.00
2030;DHT22;1020;48.854;8.830;2023-02-22T06:25:49;3.90;1.00
2030;DHT22;1020;48.854;8.830;2023-02-22T06:28:16;3.80;1.00
2030;DHT22;1020;48.854;8.830;2023-02-22T06:30:43;3.80;1.00
2030;DHT22;1020;48.854;8.830;2023-02-22T06:33:10;3.80;1.00
2030;DHT22;1020;48.854;8.830;2023-02-22T06:35:37;3.70;1.00
2030;DHT22;1020;48.854;8.830;2023-02-22T06:38:04;3.70;1.00
2030;DHT22;1020;48.854;8.830;2023-02-22T06:40:32;3.80;1.00
2030;DHT22;1020;48.854;8.830;2023-02-22T06:42:58;3.90;1.00
2030;DHT22;1020;48.854;8.830;2023-02-22T06:45:26;4.00;1.00
2030;DHT22;1020;48.854;8.830;2023-02-22T06:47:53;4.20;1.00
2030;DHT22;1020;48.854;8.830;2023-02-22T06:50:22;4.30;1.00
2030;DHT22;1020;48.854;8.830;2023-02-22T06:52:49;4.40;1.00
2030;DHT22;1020;48.854;8.830;2023-02-22T06:55:18;4.50;1.00
2030;DHT22;1020;48.854;8.830;2023-02-22T06:57:46;4.70;1.00
2030;DHT22;1020;48.854;8.830;2023-02-22T07:00:15;4.90;1.00
2030;DHT22;1020;48.854;8.830;2023-02-22T07:02:43;5.00;1.00
2030;DHT22;1020;48.854;8.830;2023-02-22T07:05:11;5.10;99.90
2030;DHT22;1020;48.854;8.830;2023-02-22T07:07:37;5.30;99.90
2030;DHT22;1020;48.854;8.830;2023-02-22T07:10:05;5.30;1.00
2030;DHT22;1020;48.854;8.830;2023-02-22T07:12:32;5.50;14.30
2030;DHT22;1020;48.854;8.830;2023-02-22T07:15:01;5.60;1.00
2030;DHT22;1020;48.854;8.830;2023-02-22T07:17:27;5.60;99.90
2030;DHT22;1020;48.854;8.830;2023-02-22T07:19:54;5.80;99.90
2030;DHT22;1020;48.854;8.830;2023-02-22T07:22:21;6.00;99.90
2030;DHT22;1020;48.854;8.830;2023-02-22T07:24:47;6.20;99.90
2030;DHT22;1020;48.854;8.830;2023-02-22T07:27:14;6.40;99.90
2030;DHT22;1020;48.854;8.830;2023-02-22T07:29:42;6.60;99.90
2030;DHT22;1020;48.854;8.830;2023-02-22T07:32:10;6.70;99.90
2030;DHT22;1020;48.854;8.830;2023-02-22T07:34:37;6.80;1.00
2030;DHT22;1020;48.854;8.830;2023-02-22T07:37:04;6.80;99.90
2030;DHT22;1020;48.854;8.830;2023-02-22T07:39:30;6.90;99.90
2030;DHT22;1020;48.854;8.830;2023-02-22T07:41:58;7.20;99.90
2030;DHT22;1020;48.854;8.830;2023-02-22T07:44:25;7.40;1.00
2030;DHT22;1020;48.854;8.830;2023-02-22T07:46:52;7.40;99.90
2030;DHT22;1020;48.854;8.830;2023-02-22T07:49:20;7.60;99.90
2030;DHT22;1020;48.854;8.830;2023-02-22T07:51:47;7.70;99.90
2030;DHT22;1020;48.854;8.830;2023-02-22T07:54:13;7.80;1.00
2030;DHT22;1020;48.854;8.830;2023-02-22T07:56:44;7.90;1.00
2030;DHT22;1020;48.854;8.830;2023-02-22T07:59:11;8.20;1.00
2030;DHT22;1020;48.854;8.830;2023-02-22T08:01:38;8.30;99.90
2030;DHT22;1020;48.854;8.830;2023-02-22T08:04:04;8.70;99.90
2030;DHT22;1020;48.854;8.830;2023-02-22T08:06:33;8.90;1.00
2030;DHT22;1020;48.854;8.830;2023-02-22T08:08:59;9.10;1.00
2030;DHT22;1020;48.854;8.830;2023-02-22T08:11:29;9.60;1.00
2030;DHT22;1020;48.854;8.830;2023-02-22T08:14:01;10.50;1.00
2030;DHT22;1020;48.854;8.830;2023-02-22T08:16:28;11.10;99.90
2030;DHT22;1020;48.854;8.830;2023-02-22T08:18:55;11.90;99.90
2030;DHT22;1020;48.854;8.830;2023-02-22T08:21:21;12.70;1.00
2030;DHT22;1020;48.854;8.830;2023-02-22T08:23:51;13.30;1.00
2030;DHT22;1020;48.854;8.830;2023-02-22T08:26:20;13.90;1.00
2030;DHT22;1020;48.854;8.830;2023-02-22T08:28:48;15.00;99.90
2030;DHT22;1020;48.854;8.830;2023-02-22T08:31:14;15.60;99.90
2030;DHT22;1020;48.854;8.830;2023-02-22T08:33:41;16.20;99.90
2030;DHT22;1020;48.854;8.830;2023-02-22T08:36:08;17.00;99.90
2030;DHT22;1020;48.854;8.830;2023-02-22T08:38:35;17.80;99.90
2030;DHT22;1020;48.854;8.830;2023-02-22T08:41:03;18.40;99.90
2030;DHT22;1020;48.854;8.830;2023-02-22T08:43:31;19.30;99.90
2030;DHT22;1020;48.854;8.830;2023-02-22T08:45:58;19.70;99.90
2030;DHT22;1020;48.854;8.830;2023-02-22T08:48:25;20.10;99.90
2030;DHT22;1020;48.854;8.830;2023-02-22T08:50:52;19.40;99.90
2030;DHT22;1020;48.854;8.830;2023-02-22T08:53:19;18.90;99.90
2030;DHT22;1020;48.854;8.830;2023-02-22T08:55:46;18.60;99.90
2030;DHT22;1020;48.854;8.830;2023-02-22T08:58:15;18.80;99.90
2030;DHT22;1020;48.854;8.830;2023-02-22T09:00:42;19.60;99.90
2030;DHT22;1020;48.854;8.830;2023-02-22T09:03:11;20.30;99.90
2030;DHT22;1020;48.854;8.830;2023-02-22T09:05:38;21.00;99.90
2030;DHT22;1020;48.854;8.830;2023-02-22T09:08:05;21.70;99.90
2030;DHT22;1020;48.854;8.830;2023-02-22T09:10:34;22.20;99.90
2030;DHT22;1020;48.854;8.830;2023-02-22T09:13:01;22.80;99.90
2030;DHT22;1020;48.854;8.830;2023-02-22T09:15:31;22.50;99.90
2030;DHT22;1020;48.854;8.830;2023-02-22T09:17:58;22.90;99.90
2030;DHT22;1020;48.854;8.830;2023-02-22T09:20:25;23.40;99.90
2030;DHT22;1020;48.854;8.830;2023-02-22T09:22:53;23.60;99.90
2030;DHT22;1020;48.854;8.830;2023-02-22T09:25:20;23.20;99.90
2030;DHT22;1020;48.854;8.830;2023-02-22T09:27:48;22.80;99.90
2030;DHT22;1020;48.854;8.830;2023-02-22T09:30:18;22.10;99.90
2030;DHT22;1020;48.854;8.830;2023-02-22T09:32:49;21.60;99.90
2030;DHT22;1020;48.854;8.830;2023-02-22T09:35:16;21.80;99.90
2030;DHT22;1020;48.854;8.830;2023-02-22T09:37:43;22.00;99.90
2030;DHT22;1020;48.854;8.830;2023-02-22T09:40:16;21.30;99.90
2030;DHT22;1020;48.854;8.830;2023-02-22T09:43:01;20.60;99.90
2030;DHT22;1020;48.854;8.830;2023-02-22T09:45:33;20.60;99.90
2030;DHT22;1020;48.854;8.830;2023-02-22T09:48:05;20.70;99.90
2030;DHT22;1020;48.854;8.830;2023-02-22T09:50:36;20.10;99.90
2030;DHT22;1020;48.854;8.830;2023-02-22T09:53:06;20.30;99.90
2030;DHT22;1020;48.854;8.830;2023-02-22T09:55:36;20.00;99.90
2030;DHT22;1020;48.854;8.830;2023-02-22T09:58:09;19.70;99.90
2030;DHT22;1020;48.854;8.830;2023-02-22T10:00:40;19.20;99.90
2030;DHT22;1020;48.854;8.830;2023-02-22T10:03:19;18.90;99.90
2030;DHT22;1020;48.854;8.830;2023-02-22T10:05:51;18.20;99.90
2030;DHT22;1020;48.854;8.830;2023-02-22T10:08:24;18.00;99.90
2030;DHT22;1020;48.854;8.830;2023-02-22T10:11:00;18.40;99.90
2030;DHT22;1020;48.854;8.830;2023-02-22T10:13:38;18.90;99.90
2030;DHT22;1020;48.854;8.830;2023-02-22T10:16:17;19.30;99.90
2030;DHT22;1020;48.854;8.830;2023-02-22T10:19:05;19.30;99.90
2030;DHT22;1020;48.854;8.830;2023-02-22T10:22:02;19.90;99.90
2030;DHT22;1020;48.854;8.830;2023-02-22T10:24:40;20.20;99.90
2030;DHT22;1020;48.854;8.830;2023-02-22T10:27:16;19.50;99.90
2030;DHT22;1020;48.854;8.830;2023-02-22T10:29:48;19.80;99.90
2030;DHT22;1020;48.854;8.830;2023-02-22T10:32:19;19.80;99.90
2030;DHT22;1020;48.854;8.830;2023-02-22T10:34:52;19.90;99.90
2030;DHT22;1020;48.854;8.830;2023-02-22T10:37:23;20.00;99.90
2030;DHT22;1020;48.854;8.830;2023-02-22T10:39:55;19.80;99.90
2030;DHT22;1020;48.854;8.830;2023-02-22T10:42:25;20.10;99.90
2030;DHT22;1020;48.854;8.830;2023-02-22T10:44:52;20.10;99.90
2030;DHT22;1020;48.854;8.830;2023-02-22T10:47:19;19.70;99.90
2030;DHT22;1020;48.854;8.830;2023-02-22T10:49:49;19.90;99.90
2030;DHT22;1020;48.854;8.830;2023-02-22T10:52:21;20.50;99.90
2030;DHT22;1020;48.854;8.830;2023-02-22T10:54:50;20.70;99.90
2030;DHT22;1020;48.854;8.830;2023-02-22T10:57:20;20.90;99.90
2030;DHT22;1020;48.854;8.830;2023-02-22T10:59:47;20.60;99.90
2030;DHT22;1020;48.854;8.830;2023-02-22T11:02:18;20.20;99.90
2030;DHT22;1020;48.854;8.830;2023-02-22T11:04:47;20.20;99.90
2030;DHT22;1020;48.854;8.830;2023-02-22T11:07:22;20.40;99.90
2030;DHT22;1020;48.854;8.830;2023-02-22T11:09:51;20.50;99.90
2030;DHT22;1020;48.854;8.830;2023-02-22T11:12:25;21.00;99.90
2030;DHT22;1020;48.854;8.830;2023-02-22T11:14:51;21.40;99.90
2030;DHT22;1020;48.854;8.830;2023-02-22T11:17:27;21.60;99.90
2030;DHT22;1020;48.854;8.830;2023-02-22T11:19:55;22.00;99.90
2030;DHT22;1020;48.854;8.830;2023-02-22T11:22:26;22.50;99.90
2030;DHT22;1020;48.854;8.830;2023-02-22T11:24:57;23.00;99.90
2030;DHT22;1020;48.854;8.830;2023-02-22T11:27:29;23.50;99.90
2030;DHT22;1020;48.854;8.830;2023-02-22T11:30:09;23.90;99.90
2030;DHT22;1020;48.854;8.830;2023-02-22T11:32:43;23.80;99.90
2030;DHT22;1020;48.854;8.830;2023-02-22T11:35:19;24.20;99.90
2030;DHT22;1020;48.854;8.830;2023-02-22T11:37:47;24.10;99.90
2030;DHT22;1020;48.854;8.830;2023-02-22T11:40:18;24.10;99.90
2030;DHT22;1020;48.854;8.830;2023-02-22T11:42:47;24.30;99.90
2030;DHT22;1020;48.854;8.830;2023-02-22T11:45:16;24.20;99.90
2030;DHT22;1020;48.854;8.830;2023-02-22T11:47:50;24.10;99.90
2030;DHT22;1020;48.854;8.830;2023-02-22T11:50:26;23.60;99.90
2030;DHT22;1020;48.854;8.830;2023-02-22T11:53:03;23.30;99.90
2030;DHT22;1020;48.854;8.830;2023-02-22T11:55:35;23.00;99.90
2030;DHT22;1020;48.854;8.830;2023-02-22T11:58:19;22.80;99.90
2030;DHT22;1020;48.854;8.830;2023-02-22T12:00:54;22.80;99.90
2030;DHT22;1020;48.854;8.830;2023-02-22T12:03:48;23.30;99.90
2030;DHT22;1020;48.854;8.830;2023-02-22T12:06:24;23.70;99.90
2030;DHT22;1020;48.854;8.830;2023-02-22T12:09:05;23.50;99.90
2030;DHT22;1020;48.854;8.830;2023-02-22T12:11:38;23.50;99.90
2030;DHT22;1020;48.854;8.830;2023-02-22T12:14:20;23.70;99.90
2030;DHT22;1020;48.854;8.830;2023-02-22T12:17:06;23.80;99.90
2030;DHT22;1020;48.854;8.830;2023-02-22T12:19:41;24.20;99.90
2030;DHT22;1020;48.854;8.830;2023-02-22T12:22:12;24.50;99.90
2030;DHT22;1020;48.854;8.830;2023-02-22T12:24:45;25.00;99.90
2030;DHT22;1020;48.854;8.830;2023-02-22T12:27:17;25.50;99.90
2030;DHT22;1020;48.854;8.830;2023-02-22T12:29:48;25.90;99.90
2030;DHT22;1020;48.854;8.830;2023-02-22T12:32:22;26.20;99.90
2030;DHT22;1020;48.854;8.830;2023-02-22T12:34:56;26.00;99.90
2030;DHT22;1020;48.854;8.830;2023-02-22T12:37:27;26.50;99.90
2030;DHT22;1020;48.854;8.830;2023-02-22T12:40:02;26.60;99.90
2030;DHT22;1020;48.854;8.830;2023-02-22T12:42:44;25.00;99.90
2030;DHT22;1020;48.854;8.830;2023-02-22T12:45:19;26.40;99.90
2030;DHT22;1020;48.854;8.830;2023-02-22T12:47:51;26.10;99.90
2030;DHT22;1020;48.854;8.830;2023-02-22T12:50:22;26.30;99.90
2030;DHT22;1020;48.854;8.830;2023-02-22T12:52:54;26.40;99.90
2030;DHT22;1020;48.854;8.830;2023-02-22T12:55:25;25.40;99.90
2030;DHT22;1020;48.854;8.830;2023-02-22T12:57:57;25.20;99.90
2030;DHT22;1020;48.854;8.830;2023-02-22T13:00:32;25.30;99.90
2030;DHT22;1020;48.854;8.830;2023-02-22T13:03:03;24.80;99.90
2030;DHT22;1020;48.854;8.830;2023-02-22T13:05:35;23.70;99.90
2030;DHT22;1020;48.854;8.830;2023-02-22T13:08:22;22.80;99.90
2030;DHT22;1020;48.854;8.830;2023-02-22T13:11:05;22.70;99.90
2030;DHT22;1020;48.854;8.830;2023-02-22T13:13:42;22.70;99.90
2030;DHT22;1020;48.854;8.830;2023-02-22T13:16:23;22.50;99.90
2030;DHT22;1020;48.854;8.830;2023-02-22T13:19:00;22.60;99.90
2030;DHT22;1020;48.854;8.830;2023-02-22T13:21:43;22.30;99.90
2030;DHT22;1020;48.854;8.830;2023-02-22T13:24:18;22.20;99.90
2030;DHT22;1020;48.854;8.830;2023-02-22T13:26:52;21.90;99.90
2030;DHT22;1020;48.854;8.830;2023-02-22T13:29:22;22.10;99.90
2030;DHT22;1020;48.854;8.830;2023-02-22T13:32:11;22.20;99.90
2030;DHT22;1020;48.854;8.830;2023-02-22T13:35:05;22.10;99.90
2030;DHT22;1020;48.854;8.830;2023-02-22T13:37:47;21.80;99.90
2030;DHT22;1020;48.854;8.830;2023-02-22T13:40:45;21.60;99.90
2030;DHT22;1020;48.854;8.830;2023-02-22T13:43:39;21.30;99.90
2030;DHT22;1020;48.854;8.830;2023-02-22T13:46:31;20.90;99.90
2030;DHT22;1020;48.854;8.830;2023-02-22T13:49:18;20.70;99.90
2030;DHT22;1020;48.854;8.830;2023-02-22T13:51:50;20.30;99.90
2030;DHT22;1020;48.854;8.830;2023-02-22T13:54:22;20.20;99.90
2030;DHT22;1020;48.854;8.830;2023-02-22T13:56:51;20.30;99.90
2030;DHT22;1020;48.854;8.830;2023-02-22T13:59:29;20.30;99.90
2030;DHT22;1020;48.854;8.830;2023-02-22T14:01:58;20.50;99.90
2030;DHT22;1020;48.854;8.830;2023-02-22T14:04:46;20.40;99.90
2030;DHT22;1020;48.854;8.830;2023-02-22T14:10:48;20.60;99.90
2030;DHT22;1020;48.854;8.830;2023-02-22T14:13:16;20.90;99.90
2030;DHT22;1020;48.854;8.830;2023-02-22T14:16:22;20.90;99.90
2030;DHT22;1020;48.854;8.830;2023-02-22T14:19:00;20.80;99.90
2030;DHT22;1020;48.854;8.830;2023-02-22T14:21:31;20.70;99.90
2030;DHT22;1020;48.854;8.830;2023-02-22T14:24:06;20.30;99.90
2030;DHT22;1020;48.854;8.830;2023-02-22T14:26:36;20.10;99.90
2030;DHT22;1020;48.854;8.830;2023-02-22T14:29:15;20.20;99.90
2030;DHT22;1020;48.854;8.830;2023-02-22T14:32:03;19.70;99.90
2030;DHT22;1020;48.854;8.830;2023-02-22T14:34:40;20.00;99.90
2030;DHT22;1020;48.854;8.830;2023-02-22T14:37:12;20.20;99.90
2030;DHT22;1020;48.854;8.830;2023-02-22T14:39:42;19.90;99.90
2030;DHT22;1020;48.854;8.830;2023-02-22T14:42:13;19.70;99.90
2030;DHT22;1020;48.854;8.830;2023-02-22T14:44:47;19.60;99.90
2030;DHT22;1020;48.854;8.830;2023-02-22T14:47:20;19.80;99.90
2030;DHT22;1020;48.854;8.830;2023-02-22T14:49:52;19.80;99.90
2030;DHT22;1020;48.854;8.830;2023-02-22T14:52:24;19.80;99.90
2030;DHT22;1020;48.854;8.830;2023-02-22T14:55:10;19.40;99.90
2030;DHT22;1020;48.854;8.830;2023-02-22T14:57:48;18.80;99.90
2030;DHT22;1020;48.854;8.830;2023-02-22T15:00:20;18.80;99.90
2030;DHT22;1020;48.854;8.830;2023-02-22T15:02:57;18.80;99.90
2030;DHT22;1020;48.854;8.830;2023-02-22T15:05:26;18.90;99.90
2030;DHT22;1020;48.854;8.830;2023-02-22T15:07:56;18.80;99.90
2030;DHT22;1020;48.854;8.830;2023-02-22T15:10:27;18.90;99.90
2030;DHT22;1020;48.854;8.830;2023-02-22T15:12:57;16.40;99.90
2030;DHT22;1020;48.854;8.830;2023-02-22T15:15:34;18.70;99.90
2030;DHT22;1020;48.854;8.830;2023-02-22T15:18:04;18.50;99.90
2030;DHT22;1020;48.854;8.830;2023-02-22T15:20:36;18.50;99.90
2030;DHT22;1020;48.854;8.830;2023-02-22T15:23:03;18.20;99.90
2030;DHT22;1020;48.854;8.830;2023-02-22T15:25:31;18.20;99.90
2030;DHT22;1020;48.854;8.830;2023-02-22T15:28:03;17.80;99.90
2030;DHT22;1020;48.854;8.830;2023-02-22T15:30:34;17.80;99.90
2030;DHT22;1020;48.854;8.830;2023-02-22T15:33:13;17.70;99.90
2030;DHT22;1020;48.854;8.830;2023-02-22T15:35:41;17.60;99.90
2030;DHT22;1020;48.854;8.830;2023-02-22T15:38:18;17.60;99.90
2030;DHT22;1020;48.854;8.830;2023-02-22T15:40:46;17.50;99.90
2030;DHT22;1020;48.854;8.830;2023-02-22T15:43:18;17.40;99.90
2030;DHT22;1020;48.854;8.830;2023-02-22T15:45:48;17.30;99.90
2030;DHT22;1020;48.854;8.830;2023-02-22T15:48:17;17.20;99.90
2030;DHT22;1020;48.854;8.830;2023-02-22T15:51:02;17.10;99.90
2030;DHT22;1020;48.854;8.830;2023-02-22T15:53:37;16.70;99.90
2030;DHT22;1020;48.854;8.830;2023-02-22T15:56:09;16.50;99.90
2030;DHT22;1020;48.854;8.830;2023-02-22T15:58:37;16.40;99.90
2030;DHT22;1020;48.854;8.830;2023-02-22T16:01:06;16.30;99.90
2030;DHT22;1020;48.854;8.830;2023-02-22T16:03:39;16.10;99.90
2030;DHT22;1020;48.854;8.830;2023-02-22T16:06:12;16.00;99.90
2030;DHT22;1020;48.854;8.830;2023-02-22T16:08:42;15.90;99.90
2030;DHT22;1020;48.854;8.830;2023-02-22T16:11:15;15.80;99.90
2030;DHT22;1020;48.854;8.830;2023-02-22T16:13:52;15.70;99.90
2030;DHT22;1020;48.854;8.830;2023-02-22T16:16:27;15.50;99.90
2030;DHT22;1020;48.854;8.830;2023-02-22T16:19:27;15.40;99.90
2030;DHT22;1020;48.854;8.830;2023-02-22T16:21:58;15.40;99.90
2030;DHT22;1020;48.854;8.830;2023-02-22T16:24:29;15.20;99.90
2030;DHT22;1020;48.854;8.830;2023-02-22T16:27:16;15.20;99.90
2030;DHT22;1020;48.854;8.830;2023-02-22T16:29:43;15.00;99.90
2030;DHT22;1020;48.854;8.830;2023-02-22T16:32:11;13.60;99.90
2030;DHT22;1020;48.854;8.830;2023-02-22T16:34:41;14.90;99.90
2030;DHT22;1020;48.854;8.830;2023-02-22T16:37:19;14.70;99.90
2030;DHT22;1020;48.854;8.830;2023-02-22T16:39:47;14.60;99.90
2030;DHT22;1020;48.854;8.830;2023-02-22T16:42:17;14.50;99.90
2030;DHT22;1020;48.854;8.830;2023-02-22T16:44:49;14.30;99.90